Terminal Aerodrome Forecast
Issued by NWS Paducah, KY

Home | Current Version | Previous Version | Text Only | Print | Product List | Glossary On
Versions: 1 2 3 4 5 6 7 8 9 10 11 12 13 14 15 16 17 18 19 20
000
FTUS43 KPAH 271120
TAFEVV
TAF
KEVV 271120Z 2712/2812 33006KT P6SM SCT060 OVC120
     FM271500 34011KT P6SM SCT030 OVC060
     FM272300 35007KT P6SM SCT060 BKN250
     FM280200 VRB03KT P6SM SCT250=

USA.gov is the U.S. government's official web portal to all federal, state and local government web resources and services.